createdAt,value
2022-10-04T00:02:21.660Z,71.16
2022-10-04T00:05:09.389Z,71.48
2022-10-04T00:07:56.066Z,71.19
2022-10-04T00:10:39.115Z,71.19
2022-10-04T00:13:27.046Z,71.24
2022-10-04T00:16:22.531Z,71.66
2022-10-04T00:19:25.882Z,71.24
2022-10-04T00:22:21.566Z,72.01
2022-10-04T00:25:22.860Z,72.34
2022-10-04T00:28:42.730Z,72.77
2022-10-04T00:31:27.276Z,72.23
2022-10-04T00:34:46.314Z,72.16
2022-10-04T00:37:57.203Z,72.49
2022-10-04T00:40:47.454Z,70.91
2022-10-04T00:43:34.194Z,71.83
2022-10-04T00:46:22.572Z,70.77
2022-10-04T00:49:09.759Z,70.43
2022-10-04T00:51:57.328Z,69.87
2022-10-04T00:54:45.589Z,70.20
2022-10-04T00:57:32.793Z,71.00
2022-10-04T01:00:18.073Z,70.70
2022-10-04T01:03:04.960Z,71.83
2022-10-04T01:05:51.991Z,70.07
2022-10-04T01:08:40.176Z,70.80
2022-10-04T01:11:28.915Z,71.02
2022-10-04T01:14:20.481Z,70.12
2022-10-04T01:17:04.651Z,69.70
2022-10-04T01:19:53.602Z,69.42
2022-10-04T01:22:45.330Z,69.42
2022-10-04T01:25:52.102Z,68.95
2022-10-04T01:28:36.337Z,70.10
2022-10-04T01:31:19.616Z,70.08
2022-10-04T01:34:03.407Z,69.63
2022-10-04T01:36:48.686Z,69.49
2022-10-04T01:39:33.070Z,69.09
2022-10-04T01:42:21.682Z,70.71
2022-10-04T01:45:11.962Z,69.24
2022-10-04T01:47:58.184Z,70.51
2022-10-04T01:50:45.275Z,68.95
2022-10-04T01:53:31.371Z,68.57
2022-10-04T01:56:20.110Z,68.11
2022-10-04T01:59:07.174Z,68.75
2022-10-04T02:01:56.446Z,68.84
2022-10-04T02:04:41.729Z,68.56
2022-10-04T02:07:29.975Z,69.96
2022-10-04T02:10:19.059Z,70.70
2022-10-04T02:13:06.542Z,69.27
2022-10-04T02:15:50.982Z,69.87
2022-10-04T02:18:35.093Z,70.54
2022-10-04T02:21:20.195Z,69.89
2022-10-04T02:24:03.423Z,70.14
2022-10-04T02:26:51.210Z,70.88
2022-10-04T02:29:36.238Z,71.62
2022-10-04T02:32:36.587Z,72.71
2022-10-04T02:35:21.309Z,72.47
2022-10-04T02:38:12.285Z,72.38
2022-10-04T02:40:59.323Z,72.84
2022-10-04T02:43:49.207Z,72.19
2022-10-04T02:46:37.639Z,72.08
2022-10-04T02:49:27.791Z,72.49
2022-10-04T02:52:16.376Z,72.62
2022-10-04T02:55:05.464Z,73.70
2022-10-04T02:57:49.976Z,72.84
2022-10-04T03:00:34.260Z,73.09
2022-10-04T03:03:24.262Z,72.10
2022-10-04T03:06:10.108Z,70.96
2022-10-04T03:08:58.169Z,70.89
2022-10-04T03:11:43.198Z,70.46
2022-10-04T03:14:29.113Z,69.92
2022-10-04T03:17:12.949Z,70.44
2022-10-04T03:19:58.359Z,69.25
2022-10-04T03:22:46.668Z,69.64
2022-10-04T03:25:36.862Z,69.55
2022-10-04T03:28:20.453Z,70.98
2022-10-04T03:31:03.776Z,70.28
2022-10-04T03:33:48.249Z,69.91
2022-10-04T03:36:32.813Z,70.16
2022-10-04T03:39:25.957Z,70.00
2022-10-04T03:42:14.691Z,69.73
2022-10-04T03:45:02.154Z,70.06
2022-10-04T03:47:48.596Z,69.54
2022-10-04T03:50:35.414Z,68.29
2022-10-04T03:53:29.309Z,68.83
2022-10-04T03:56:14.900Z,69.03
2022-10-04T03:58:58.786Z,70.12
2022-10-04T04:01:46.784Z,70.45
2022-10-04T04:04:41.305Z,70.49
2022-10-04T04:07:30.391Z,72.42
2022-10-04T04:10:24.575Z,72.69
2022-10-04T04:13:25.373Z,72.28
2022-10-04T04:16:10.807Z,72.33
2022-10-04T04:18:56.424Z,74.00
2022-10-04T04:21:40.075Z,73.19
2022-10-04T04:24:26.923Z,73.85
2022-10-04T04:27:14.520Z,74.24
2022-10-04T04:30:01.347Z,73.20
2022-10-04T04:32:49.345Z,74.03
2022-10-04T04:35:36.280Z,74.35
2022-10-04T04:38:24.471Z,74.17
2022-10-04T04:41:12.322Z,74.38
2022-10-04T04:43:56.975Z,74.16
2022-10-04T04:46:40.294Z,72.30
2022-10-04T04:49:24.201Z,72.56
2022-10-04T04:52:09.161Z,72.57
2022-10-04T04:54:53.165Z,71.71
2022-10-04T04:57:36.555Z,71.30
2022-10-04T05:00:26.373Z,71.05
2022-10-04T05:03:20.006Z,71.30
2022-10-04T05:06:04.951Z,70.60
2022-10-04T05:08:51.475Z,70.09
2022-10-04T05:11:37.789Z,69.56
2022-10-04T05:14:21.209Z,69.29
2022-10-04T05:17:06.885Z,68.61
2022-10-04T05:19:51.733Z,68.98
2022-10-04T05:22:36.221Z,69.58
2022-10-04T05:25:28.022Z,67.90
2022-10-04T05:28:12.191Z,66.98
2022-10-04T05:31:10.550Z,66.04
2022-10-04T05:33:58.346Z,64.15
2022-10-04T05:36:49.293Z,61.87
2022-10-04T05:39:42.281Z,62.11
2022-10-04T05:42:31.359Z,60.38
2022-10-04T05:45:19.149Z,60.44
2022-10-04T05:48:07.845Z,60.03
2022-10-04T05:50:52.260Z,58.97
2022-10-04T05:53:36.361Z,57.58
2022-10-04T05:56:40.609Z,57.03
2022-10-04T05:59:38.797Z,54.43
2022-10-04T06:02:37.085Z,53.00
2022-10-04T06:05:29.175Z,52.69
2022-10-04T06:08:25.833Z,52.60
2022-10-04T06:11:24.530Z,50.70
2022-10-04T06:14:39.665Z,50.72
2022-10-04T06:17:34.589Z,50.46
2022-10-04T06:20:51.147Z,49.27
2022-10-04T06:23:43.064Z,46.98
2022-10-04T06:26:31.221Z,41.26
2022-10-04T06:29:20.653Z,33.17
2022-10-04T06:32:35.963Z,32.70
2022-10-04T06:35:39.944Z,35.51
2022-10-04T06:38:49.831Z,38.75
2022-10-04T06:41:48.515Z,39.58
2022-10-04T06:44:52.808Z,39.70
2022-10-04T06:47:54.583Z,42.03
2022-10-04T06:50:47.460Z,44.17
2022-10-04T06:53:43.309Z,41.26
2022-10-04T06:56:46.033Z,33.43
2022-10-04T06:59:59.070Z,28.21
2022-10-04T07:02:47.962Z,23.25
2022-10-04T07:05:35.118Z,24.15
2022-10-04T07:08:31.624Z,24.49
2022-10-04T07:11:19.353Z,29.04
2022-10-04T07:14:11.271Z,32.64
2022-10-04T07:16:59.433Z,30.07
2022-10-04T07:19:47.463Z,32.02
2022-10-04T07:22:35.912Z,34.64
2022-10-04T07:25:23.912Z,38.86
2022-10-04T07:28:33.912Z,40.95
2022-10-04T07:31:26.173Z,42.19
2022-10-04T07:34:12.688Z,42.03
2022-10-04T07:36:58.045Z,39.18
2022-10-04T07:39:47.215Z,37.62
2022-10-04T07:42:35.193Z,39.22
2022-10-04T07:45:24.150Z,38.31
2022-10-04T07:48:23.559Z,37.57
2022-10-04T07:51:15.326Z,39.47
2022-10-04T07:54:03.807Z,41.84
2022-10-04T07:56:55.268Z,42.61
2022-10-04T07:59:46.499Z,43.52
2022-10-04T08:02:45.132Z,44.07
2022-10-04T08:05:37.135Z,43.90
2022-10-04T08:08:46.491Z,44.42
2022-10-04T08:11:39.190Z,44.96
2022-10-04T08:14:35.818Z,43.59
2022-10-04T08:17:33.677Z,44.28
2022-10-04T08:20:34.831Z,44.26
2022-10-04T08:23:40.706Z,42.16
2022-10-04T08:26:46.993Z,40.21
2022-10-04T08:30:02.433Z,36.58
2022-10-04T08:33:08.781Z,30.30
2022-10-04T08:36:05.634Z,29.67
2022-10-04T08:38:51.769Z,27.73
2022-10-04T08:42:15.323Z,24.49
2022-10-04T08:45:32.482Z,21.05
2022-10-04T08:48:47.232Z,18.57
2022-10-04T08:52:13.824Z,16.74
2022-10-04T08:55:35.183Z,16.28
2022-10-04T08:58:36.814Z,14.11
2022-10-04T09:01:40.808Z,13.96
2022-10-04T09:04:56.665Z,14.37
2022-10-04T09:08:18.324Z,13.48
2022-10-04T09:11:26.669Z,13.20
2022-10-04T09:14:33.345Z,12.85
2022-10-04T09:17:23.082Z,13.85
2022-10-04T09:20:39.437Z,13.53
2022-10-04T09:24:12.377Z,12.74
2022-10-04T09:27:06.648Z,13.12
2022-10-04T09:30:16.435Z,16.02
2022-10-04T09:33:09.606Z,16.94
2022-10-04T09:36:17.149Z,19.81
2022-10-04T09:39:30.031Z,18.30
2022-10-04T09:42:47.482Z,18.03
2022-10-04T09:45:45.508Z,16.72
2022-10-04T09:48:37.587Z,14.35
2022-10-04T09:51:42.005Z,13.52
2022-10-04T09:54:55.171Z,12.69
2022-10-04T09:58:10.541Z,12.04
2022-10-04T10:01:01.114Z,12.24
2022-10-04T10:04:14.497Z,11.35
2022-10-04T10:07:37.996Z,12.59
2022-10-04T10:10:48.569Z,16.66
2022-10-04T10:13:57.957Z,15.28
2022-10-04T10:17:01.018Z,14.04
2022-10-04T10:20:05.689Z,15.60
2022-10-04T10:23:06.812Z,15.74
2022-10-04T10:26:13.683Z,17.58
2022-10-04T10:29:31.065Z,17.90
2022-10-04T10:33:04.576Z,17.37
2022-10-04T10:36:21.554Z,18.43
2022-10-04T10:39:38.041Z,21.50
2022-10-04T10:43:02.465Z,22.53
2022-10-04T10:46:04.636Z,24.40
2022-10-04T10:49:04.736Z,27.13
2022-10-04T10:52:26.138Z,29.11
2022-10-04T10:55:41.858Z,30.59
2022-10-04T10:59:08.393Z,30.66
2022-10-04T11:02:48.283Z,29.13
2022-10-04T11:06:01.362Z,29.06
2022-10-04T11:09:28.863Z,30.58
2022-10-04T11:12:51.938Z,30.47
2022-10-04T11:15:44.580Z,25.04
2022-10-04T11:18:52.042Z,20.67
2022-10-04T11:22:10.548Z,19.15
2022-10-04T11:25:39.836Z,22.04
2022-10-04T11:28:32.752Z,25.26
2022-10-04T11:31:42.174Z,26.66
2022-10-04T11:35:04.978Z,29.39
2022-10-04T11:38:04.178Z,30.38
2022-10-04T11:41:07.306Z,31.77
2022-10-04T11:44:31.615Z,31.15
2022-10-04T11:47:34.557Z,30.55
2022-10-04T11:50:40.070Z,33.12
2022-10-04T11:54:03.643Z,33.05
2022-10-04T11:57:10.706Z,32.88
2022-10-04T12:00:02.461Z,33.70
2022-10-04T12:03:22.064Z,33.13
2022-10-04T12:06:22.740Z,34.26
2022-10-04T12:09:15.028Z,35.70
2022-10-04T12:12:37.971Z,35.78
2022-10-04T12:15:39.564Z,35.88
2022-10-04T12:18:41.374Z,37.09
2022-10-04T12:21:59.250Z,37.78
2022-10-04T12:25:17.756Z,38.27
2022-10-04T12:28:18.401Z,37.30
2022-10-04T12:31:24.451Z,37.16
2022-10-04T12:34:19.523Z,39.27
2022-10-04T12:37:18.832Z,37.34
2022-10-04T12:40:20.661Z,37.92
2022-10-04T12:43:40.749Z,39.36
2022-10-04T12:46:34.657Z,40.02
2022-10-04T12:49:28.467Z,39.86
2022-10-04T12:52:19.753Z,40.46
2022-10-04T12:55:20.417Z,40.99
2022-10-04T12:58:09.042Z,40.72
2022-10-04T13:00:57.780Z,40.75
2022-10-04T13:04:07.217Z,40.25
2022-10-04T13:07:01.992Z,40.36
2022-10-04T13:10:22.535Z,41.63
2022-10-04T13:13:20.374Z,42.36
2022-10-04T13:19:24.015Z,43.15
2022-10-04T13:22:55.417Z,43.00
2022-10-04T13:26:03.525Z,43.49
2022-10-04T13:28:54.181Z,43.41
2022-10-04T13:31:43.051Z,44.02
2022-10-04T13:34:38.080Z,43.42
2022-10-04T13:37:33.670Z,42.90
2022-10-04T13:40:35.127Z,42.80
2022-10-04T13:43:35.844Z,42.31
2022-10-04T13:46:27.963Z,42.39
2022-10-04T13:49:35.602Z,43.83
2022-10-04T13:52:49.115Z,44.32
2022-10-04T13:55:56.124Z,43.50
2022-10-04T13:58:48.353Z,42.14
2022-10-04T14:01:57.604Z,43.27
2022-10-04T14:05:33.112Z,44.42
2022-10-04T14:08:54.822Z,44.88
2022-10-04T14:12:32.380Z,44.37
2022-10-04T14:15:38.903Z,46.10
2022-10-04T14:19:20.846Z,45.54
2022-10-04T14:22:36.354Z,46.43
2022-10-04T14:25:55.086Z,45.04
2022-10-04T14:29:08.534Z,47.32
2022-10-04T14:32:23.223Z,46.01
2022-10-04T14:35:14.147Z,47.12
2022-10-04T14:38:29.552Z,47.97
2022-10-04T14:41:48.127Z,47.59
2022-10-04T14:45:04.873Z,46.61
2022-10-04T14:48:38.525Z,45.71
2022-10-04T14:51:45.974Z,45.21
2022-10-04T14:54:42.190Z,46.58
2022-10-04T14:57:43.600Z,46.20
2022-10-04T15:00:36.116Z,47.66
2022-10-04T15:03:32.106Z,48.90
2022-10-04T15:06:37.119Z,50.07
2022-10-04T15:09:41.817Z,50.71
2022-10-04T15:16:14.546Z,50.71
2022-10-04T15:19:05.279Z,51.50
2022-10-04T15:21:54.465Z,52.04
2022-10-04T15:24:50.707Z,52.01
2022-10-04T15:27:50.809Z,52.95
2022-10-04T15:30:47.211Z,52.50
2022-10-04T15:33:37.385Z,52.96
2022-10-04T15:37:04.438Z,53.48
2022-10-04T15:40:11.363Z,52.68
2022-10-04T15:43:13.363Z,55.31
2022-10-04T15:46:36.012Z,54.51
2022-10-04T15:49:37.244Z,55.22
2022-10-04T15:52:54.251Z,56.14
2022-10-04T15:56:02.822Z,56.29
2022-10-04T15:58:56.493Z,56.10
2022-10-04T16:02:08.307Z,57.32
2022-10-04T16:05:04.537Z,57.68
2022-10-04T16:08:06.636Z,59.31
2022-10-04T16:11:14.890Z,57.94
2022-10-04T16:14:11.996Z,58.49
2022-10-04T16:17:25.427Z,59.63
2022-10-04T16:20:28.853Z,60.76
2022-10-04T16:23:32.687Z,60.26
2022-10-04T16:26:51.916Z,60.08
2022-10-04T16:29:41.337Z,60.49
2022-10-04T16:32:29.247Z,59.79
2022-10-04T16:35:25.367Z,60.34
2022-10-04T16:38:21.682Z,60.87
2022-10-04T16:41:13.386Z,60.55
2022-10-04T16:43:59.140Z,60.40
2022-10-04T16:46:46.604Z,60.49
2022-10-04T16:49:40.206Z,60.24
2022-10-04T16:52:49.313Z,60.64
2022-10-04T16:55:47.695Z,59.59
2022-10-04T16:58:53.331Z,59.72
2022-10-04T17:01:54.313Z,60.01
2022-10-04T17:05:19.416Z,59.52
2022-10-04T17:08:23.872Z,59.41
2022-10-04T17:11:35.623Z,59.57
2022-10-04T17:14:53.242Z,59.19
2022-10-04T17:17:51.940Z,60.06
2022-10-04T17:20:51.073Z,59.85
2022-10-04T17:23:53.459Z,59.23
2022-10-04T17:27:02.003Z,59.27
2022-10-04T17:30:03.310Z,59.36
2022-10-04T17:33:01.286Z,59.37
2022-10-04T17:36:01.405Z,59.01
2022-10-04T17:38:52.631Z,58.27
2022-10-04T17:42:12.218Z,59.88
2022-10-04T17:45:22.296Z,60.37
2022-10-04T17:48:29.609Z,60.16
2022-10-04T17:51:49.918Z,60.69
2022-10-04T17:55:00.429Z,59.42
2022-10-04T17:57:50.110Z,60.91
2022-10-04T18:00:52.696Z,60.46
2022-10-04T18:03:41.851Z,60.58
2022-10-04T18:06:34.035Z,60.92
2022-10-04T18:09:23.868Z,60.92
2022-10-04T18:12:13.372Z,59.97
2022-10-04T18:15:06.143Z,60.96
2022-10-04T18:17:50.979Z,61.06
2022-10-04T18:20:40.883Z,60.60
2022-10-04T18:23:28.403Z,60.65
2022-10-04T18:26:17.693Z,60.55
2022-10-04T18:29:02.499Z,60.94
2022-10-04T18:31:45.607Z,61.56
2022-10-04T18:34:32.203Z,60.87
2022-10-04T18:37:22.191Z,61.01
2022-10-04T18:40:17.334Z,61.37
2022-10-04T18:43:01.892Z,62.71
2022-10-04T18:46:02.579Z,63.25
2022-10-04T18:48:53.927Z,64.28
2022-10-04T18:51:40.307Z,63.87
2022-10-04T18:54:37.634Z,63.63
2022-10-04T18:57:32.219Z,64.40
2022-10-04T19:00:33.107Z,64.55
2022-10-04T19:03:24.126Z,64.36
2022-10-04T19:06:18.459Z,64.34
2022-10-04T19:09:13.859Z,65.13
2022-10-04T19:12:04.247Z,64.79
2022-10-04T19:14:55.893Z,65.14
2022-10-04T19:17:47.067Z,65.94
2022-10-04T19:20:39.961Z,65.29
2022-10-04T19:23:33.883Z,66.19
2022-10-04T19:26:37.595Z,65.50
2022-10-04T19:29:32.927Z,66.22
2022-10-04T19:32:29.298Z,65.72
2022-10-04T19:35:30.330Z,66.51
2022-10-04T19:38:27.073Z,66.73
2022-10-04T19:41:21.007Z,66.33
2022-10-04T19:44:13.646Z,67.16
2022-10-04T19:47:04.082Z,67.08
2022-10-04T19:49:57.999Z,66.82
2022-10-04T19:52:47.268Z,67.63
2022-10-04T19:55:48.069Z,68.07
2022-10-04T19:58:44.405Z,67.75
2022-10-04T20:01:29.770Z,67.37
2022-10-04T20:04:33.403Z,67.49
2022-10-04T20:07:25.446Z,67.91
2022-10-04T20:10:24.147Z,68.77
2022-10-04T20:13:21.429Z,68.42
2022-10-04T20:16:04.629Z,68.91
2022-10-04T20:19:16.291Z,69.14
2022-10-04T20:22:29.044Z,70.19
2022-10-04T20:25:12.043Z,70.10
2022-10-04T20:28:03.836Z,70.33
2022-10-04T20:30:52.410Z,71.69
2022-10-04T20:33:49.305Z,72.05
2022-10-04T20:36:53.025Z,72.53
2022-10-04T20:40:01.467Z,72.59
2022-10-04T20:42:44.493Z,72.34
2022-10-04T20:45:28.334Z,73.38
2022-10-04T20:48:15.023Z,72.97
2022-10-04T20:51:00.613Z,73.47
2022-10-04T20:53:46.756Z,74.16
2022-10-04T20:56:32.519Z,74.62
2022-10-04T20:59:17.409Z,75.89
2022-10-04T21:02:05.889Z,76.35
2022-10-04T21:04:52.206Z,75.15
2022-10-04T21:07:35.212Z,75.43
2022-10-04T21:10:20.533Z,75.80
2022-10-04T21:13:04.923Z,75.55
2022-10-04T21:15:56.855Z,75.49
2022-10-04T21:18:39.930Z,76.05
2022-10-04T21:21:49.570Z,75.99
2022-10-04T21:24:36.776Z,76.66
2022-10-04T21:27:28.573Z,76.17
2022-10-04T21:30:17.005Z,76.49
2022-10-04T21:33:00.000Z,76.59
2022-10-04T21:35:43.099Z,76.29
2022-10-04T21:38:26.135Z,75.73
2022-10-04T21:41:09.409Z,76.44
2022-10-04T21:43:52.451Z,76.12
2022-10-04T21:46:37.291Z,76.26
2022-10-04T21:49:20.304Z,77.23
2022-10-04T21:52:03.489Z,77.78
2022-10-04T21:54:46.517Z,77.36
2022-10-04T21:57:33.310Z,77.65
2022-10-04T22:00:18.729Z,77.97
2022-10-04T22:03:03.216Z,77.88
2022-10-04T22:05:46.203Z,77.66
2022-10-04T22:08:29.197Z,78.08
2022-10-04T22:11:12.551Z,78.67
2022-10-04T22:13:55.677Z,78.53
2022-10-04T22:16:38.880Z,79.08
2022-10-04T22:19:23.311Z,78.71
2022-10-04T22:22:06.349Z,79.17
2022-10-04T22:24:49.311Z,79.18
2022-10-04T22:27:32.331Z,79.09
2022-10-04T22:30:22.700Z,79.25
2022-10-04T22:33:31.748Z,79.17
2022-10-04T22:36:20.211Z,78.81
2022-10-04T22:39:11.596Z,78.82
2022-10-04T22:41:57.195Z,78.75
2022-10-04T22:44:41.444Z,79.24
2022-10-04T22:47:25.909Z,78.24
2022-10-04T22:50:22.643Z,78.73
2022-10-04T22:53:14.439Z,78.72
2022-10-04T22:55:58.071Z,79.48
2022-10-04T22:58:41.462Z,79.47
2022-10-04T23:01:24.439Z,79.20
2022-10-04T23:04:14.437Z,80.04
2022-10-04T23:06:57.405Z,80.36
2022-10-04T23:09:41.785Z,79.94
2022-10-04T23:12:24.798Z,80.25
2022-10-04T23:15:09.076Z,79.60
2022-10-04T23:17:55.615Z,80.97
2022-10-04T23:20:38.572Z,81.71
2022-10-04T23:23:22.260Z,81.74
2022-10-04T23:26:14.603Z,81.73
2022-10-04T23:28:57.716Z,81.60
2022-10-04T23:31:40.979Z,82.25
2022-10-04T23:34:28.390Z,82.09
2022-10-04T23:37:17.214Z,82.07
2022-10-04T23:40:00.397Z,83.17
2022-10-04T23:42:47.184Z,84.24
2022-10-04T23:45:30.313Z,84.76
2022-10-04T23:48:17.698Z,84.05
2022-10-04T23:51:01.012Z,82.57
2022-10-04T23:53:45.897Z,82.02
2022-10-04T23:56:30.598Z,83.00
2022-10-04T23:59:18.145Z,82.73
